ADDS METAR Data INFO
IDs: Format: Raw Decoded Include TAF

Data at: 2112 UTC 22 Oct 2017

KTDF 222100Z AUTO 12006KT 10SM CLR 23/11 A3029 RMK AO2
KTDF 222040Z AUTO 13006KT 10SM CLR 24/10 A3028 RMK AO2
KTDF 222020Z AUTO 12003KT 10SM CLR 24/10 A3029 RMK AO2
KTDF 222000Z AUTO 13007KT 10SM CLR 24/10 A3029 RMK AO2
KTDF 221940Z AUTO 19005KT 10SM CLR 24/09 A3030 RMK AO2
KTDF 221920Z AUTO 00000KT 10SM CLR 24/09 A3030 RMK AO2
KTDF 221900Z AUTO 17005KT 10SM CLR 24/10 A3031 RMK AO2
KTDF 221840Z AUTO 20007KT 10SM CLR 24/11 A3032 RMK AO2
KTDF 221820Z AUTO 00000KT 10SM CLR 23/11 A3032 RMK AO2
KTDF 221800Z AUTO 15005KT 10SM CLR 23/10 A3033 RMK AO2
KTDF 221740Z AUTO 11009KT 10SM CLR 23/10 A3034 RMK AO2
KTDF 221720Z AUTO 15004KT 10SM CLR 23/10 A3035 RMK AO2
KTDF 221700Z AUTO 13008KT 10SM CLR 22/11 A3036 RMK AO2
KTDF 221640Z AUTO 13006KT 10SM CLR 22/11 A3038 RMK AO2
KTDF 221620Z AUTO 00000KT 10SM CLR 22/12 A3039 RMK AO2
KTDF 221600Z AUTO 19007KT 10SM CLR 21/12 A3039 RMK AO2
KTDF 221540Z AUTO 14004KT 10SM CLR 21/12 A3039 RMK AO2
KTDF 221520Z AUTO 12004KT 10SM CLR 20/13 A3040 RMK AO2
KTDF 221500Z AUTO 00000KT 10SM CLR 19/14 A3040 RMK AO2
KTDF 221440Z AUTO 19003KT 10SM CLR 18/15 A3040 RMK AO2
KTDF 221420Z AUTO 00000KT 10SM CLR 17/15 A3040 RMK AO2
KTDF 221400Z AUTO 00000KT 10SM CLR 16/13 A3040 RMK AO2
KTDF 221340Z AUTO 00000KT 10SM CLR 15/13 A3040 RMK AO2
KTDF 221320Z AUTO 00000KT 10SM CLR 12/12 A3040 RMK AO2
KTDF 221300Z AUTO 00000KT 10SM CLR 11/11 A3040 RMK AO2
KTDF 221240Z AUTO 00000KT 10SM CLR 09/09 A3040 RMK AO2
KTDF 221220Z AUTO 00000KT 10SM CLR 08/08 A3039 RMK AO2
KTDF 221200Z AUTO 00000KT 10SM CLR 07/07 A3038 RMK AO2
KTDF 221140Z AUTO 00000KT 1 3/4SM BR VV007 07/07 A3038 RMK AO2 VIS 1/4V5
KTDF 221120Z AUTO 00000KT 10SM CLR 08/08 A3037 RMK AO2
KTDF 221100Z AUTO 00000KT 10SM CLR 07/07 A3037 RMK AO2
KTDF 221040Z AUTO 00000KT 10SM CLR 08/08 A3037 RMK AO2
KTDF 221020Z AUTO 00000KT 10SM CLR 08/08 A3036 RMK AO2
KTDF 221000Z AUTO 00000KT 7SM CLR 08/08 A3036 RMK AO2
KTDF 220940Z AUTO 00000KT 7SM CLR 08/08 A3036 RMK AO2
KTDF 220920Z AUTO 00000KT 5SM BR CLR 08/08 A3036 RMK AO2
KTDF 220900Z AUTO 00000KT 10SM CLR 08/08 A3035 RMK AO2
KTDF 220840Z AUTO 00000KT 1 1/4SM BR VV007 08/08 A3035 RMK AO2
KTDF 220820Z AUTO 00000KT 1SM BR VV007 08/08 A3035 RMK AO2
KTDF 220805Z AUTO 00000KT 1SM BR VV007 08/08 A3035 RMK AO2 VIS 1/2V4
KTDF 220740Z AUTO 00000KT 10SM CLR 08/08 A3035 RMK AO2
KTDF 220720Z AUTO 00000KT 4SM BR CLR 09/09 A3035 RMK AO2
KTDF 220700Z AUTO 00000KT 7SM CLR 08/08 A3035 RMK AO2
KTDF 220645Z AUTO 00000KT 3/4SM BR VV005 09/09 A3035 RMK AO2
KTDF 220620Z AUTO 00000KT 10SM CLR 08/08 A3035 RMK AO2
KTDF 220605Z AUTO 00000KT 2 1/2SM BR CLR 10/10 A3035 RMK AO2
KTDF 220545Z AUTO 00000KT 3/4SM BR VV005 09/09 A3035 RMK AO2
KTDF 220525Z AUTO 00000KT 1SM BR VV007 10/10 A3035 RMK AO2
KTDF 220505Z AUTO 00000KT 1SM BR VV007 10/10 A3035 RMK AO2 VIS 1/2V5
KTDF 220440Z AUTO 00000KT 5SM BR CLR 10/10 A3036 RMK AO2
KTDF 220425Z AUTO 00000KT 1 3/4SM BR VV007 10/10 A3036 RMK AO2
KTDF 220400Z AUTO 00000KT 5SM BR CLR 10/10 A3036 RMK AO2
KTDF 220340Z AUTO 00000KT 7SM CLR 11/11 A3036 RMK AO2
KTDF 220320Z AUTO 00000KT 10SM CLR 11/11 A3036 RMK AO2
KTDF 220300Z AUTO 00000KT 10SM CLR 11/11 A3036 RMK AO2
KTDF 220240Z AUTO 00000KT 10SM CLR 12/11 A3036 RMK AO2
KTDF 220220Z AUTO 00000KT 10SM CLR 12/11 A3037 RMK AO2
KTDF 220200Z AUTO 00000KT 10SM CLR 12/11 A3036 RMK AO2
KTDF 220140Z AUTO 00000KT 10SM CLR 13/11 A3036 RMK AO2
KTDF 220120Z AUTO 00000KT 10SM CLR 13/12 A3036 RMK AO2
KTDF 220100Z AUTO 00000KT 10SM CLR 13/12 A3036 RMK AO2
KTDF 220040Z AUTO 00000KT 10SM CLR 13/12 A3036 RMK AO2
KTDF 220025Z AUTO 00000KT 10SM CLR 13/12 A3036 RMK AO2
KTDF 220000Z AUTO 00000KT 10SM CLR 15/12 A3035 RMK AO2
KTDF 212340Z AUTO 00000KT 10SM CLR 15/12 A3035 RMK AO2
KTDF 212320Z AUTO 00000KT 10SM CLR 16/12 A3035 RMK AO2
KTDF 212300Z AUTO 00000KT 10SM CLR 17/13 A3035 RMK AO2
KTDF 212245Z AUTO 00000KT 10SM CLR 17/13 A3034 RMK AO2
KTDF 212225Z AUTO 00000KT 10SM CLR 18/13 A3034 RMK AO2
KTDF 212205Z AUTO 00000KT 10SM CLR 20/13 A3033 RMK AO2
KTDF 212140Z AUTO 00000KT 10SM CLR 22/12 A3033 RMK AO2
KTDF 212125Z AUTO 00000KT 10SM CLR 23/11 A3033 RMK AO2
KTDF 212105Z AUTO 00000KT 10SM CLR 23/11 A3032 RMK AO2
KTDF 212045Z AUTO 18003KT 10SM CLR 23/10 A3032 RMK AO2
KTDF 212020Z AUTO 16004KT 10SM CLR 23/10 A3032 RMK AO2
KTDF 212005Z AUTO 16003KT 10SM CLR 23/10 A3032 RMK AO2
KTDF 211945Z AUTO 14003KT 10SM CLR 24/10 A3032 RMK AO2
KTDF 211925Z AUTO 00000KT 10SM CLR 24/09 A3032 RMK AO2
KTDF 211905Z AUTO 18003KT 10SM CLR 24/09 A3032 RMK AO2
KTDF 211845Z AUTO 00000KT 10SM CLR 24/09 A3032 RMK AO2
KTDF 211825Z AUTO 18005KT 10SM CLR 24/10 A3032 RMK AO2
KTDF 211805Z AUTO 07003KT 10SM CLR 23/10 A3033 RMK AO2
KTDF 211745Z AUTO 00000KT 10SM CLR 23/10 A3033 RMK AO2
KTDF 211725Z AUTO 14004KT 10SM CLR 23/10 A3034 RMK AO2
KTDF 211705Z AUTO 11006KT 10SM CLR 23/10 A3035 RMK AO2
KTDF 211645Z AUTO 00000KT 10SM CLR 23/10 A3035 RMK AO2
KTDF 211625Z AUTO 11003KT 10SM CLR 22/10 A3036 RMK AO2
KTDF 211605Z AUTO 15004KT 10SM CLR 22/10 A3037 RMK AO2
KTDF 211545Z AUTO 00000KT 10SM CLR 22/10 A3037 RMK AO2
KTDF 211525Z AUTO 13003KT 10SM CLR 21/11 A3038 RMK AO2
KTDF 211505Z AUTO 00000KT 10SM CLR 21/10 A3037 RMK AO2
KTDF 211445Z AUTO 00000KT 10SM CLR 20/11 A3038 RMK AO2
KTDF 211425Z AUTO 00000KT 10SM CLR 18/11 A3038 RMK AO2
KTDF 211405Z AUTO 00000KT 10SM CLR 17/11 A3038 RMK AO2
KTDF 211345Z AUTO 00000KT 10SM CLR 15/11 A3038 RMK AO2
KTDF 211325Z AUTO 00000KT 10SM CLR 12/11 A3037 RMK AO2
KTDF 211305Z AUTO 00000KT 10SM CLR 10/10 A3037 RMK AO2
KTDF 211240Z AUTO 00000KT 10SM CLR 08/08 A3036 RMK AO2
KTDF 211225Z AUTO 00000KT 10SM CLR 07/07 A3035 RMK AO2
KTDF 211205Z AUTO 00000KT 10SM CLR 06/06 A3035 RMK AO2
KTDF 211140Z AUTO 00000KT 10SM CLR 06/06 A3034 RMK AO2
KTDF 211120Z AUTO 00000KT 10SM CLR 06/06 A3033 RMK AO2
KTDF 211100Z AUTO 00000KT 10SM CLR 06/06 A3033 RMK AO2
KTDF 211045Z AUTO 00000KT 10SM CLR 06/06 A3032 RMK AO2
KTDF 211020Z AUTO 00000KT 10SM CLR 06/06 A3032 RMK AO2
KTDF 211000Z AUTO 00000KT 10SM CLR 06/06 A3031 RMK AO2
KTDF 210945Z AUTO 00000KT 7SM CLR 06/06 A3030 RMK AO2
KTDF 210920Z AUTO 00000KT 10SM CLR 06/06 A3030 RMK AO2